Airport Name : Enid Woodring Rgnl

Other Name : Enid Woodring

ICAO : KWDG

IATA : WDG

FAA : WDG

Latitude : 36.379203

Longitude : -97.791111

Country : United States

Local Date and Time : 22 May 2024 16:34

 

TAF (Terminal Aerodrome Forecast)

 

METAR (METeorological Aerodrome Report)

KWDG 222050Z 04008G15KT 10SM SKC 26/13 A2988

KWDG 221950Z 02009G15KT 10SM SKC 25/14 A2991

KWDG 221855Z 05007KT 10SM FEW150 24/13 A2994

KWDG 221755Z 04009KT 10SM BKN075 23/11 A2997